createdAt,value
2023-02-06T00:01:41.436Z,-6.00
2023-02-06T00:04:08.556Z,-6.02
2023-02-06T00:06:35.818Z,-5.99
2023-02-06T00:09:06.713Z,-5.98
2023-02-06T00:11:36.525Z,-6.02
2023-02-06T00:14:03.922Z,-6.04
2023-02-06T00:16:35.428Z,-6.06
2023-02-06T00:19:03.355Z,-6.10
2023-02-06T00:21:36.149Z,-6.11
2023-02-06T00:24:06.948Z,-6.16
2023-02-06T00:26:34.049Z,-6.20
2023-02-06T00:29:01.242Z,-6.23
2023-02-06T00:31:28.429Z,-6.21
2023-02-06T00:33:55.639Z,-6.21
2023-02-06T00:36:24.951Z,-6.19
2023-02-06T00:38:52.061Z,-6.19
2023-02-06T00:41:20.664Z,-6.21
2023-02-06T00:43:47.729Z,-6.23
2023-02-06T00:46:14.890Z,-6.27
2023-02-06T00:48:43.914Z,-6.30
2023-02-06T00:51:11.026Z,-6.33
2023-02-06T00:53:44.403Z,-6.34
2023-02-06T00:56:14.302Z,-6.38
2023-02-06T00:58:41.442Z,-6.41
2023-02-06T01:01:10.184Z,-6.44
2023-02-06T01:03:39.036Z,-6.48
2023-02-06T01:06:06.197Z,-6.49
2023-02-06T01:08:36.230Z,-6.50
2023-02-06T01:11:12.561Z,-6.55
2023-02-06T01:13:39.712Z,-6.58
2023-02-06T01:16:12.353Z,-6.56
2023-02-06T01:18:41.017Z,-6.54
2023-02-06T01:21:11.754Z,-6.53
2023-02-06T01:23:39.638Z,-6.46
2023-02-06T01:26:09.423Z,-6.54
2023-02-06T01:28:46.986Z,-6.57
2023-02-06T01:31:17.250Z,-6.60
2023-02-06T01:33:47.535Z,-6.60
2023-02-06T01:36:16.332Z,-6.64
2023-02-06T01:38:44.042Z,-6.69
2023-02-06T01:41:11.650Z,-6.73
2023-02-06T01:43:42.880Z,-6.69
2023-02-06T01:46:10.581Z,-6.66
2023-02-06T01:48:45.654Z,-6.60
2023-02-06T01:51:18.350Z,-6.66
2023-02-06T01:53:50.358Z,-6.77
2023-02-06T01:56:19.638Z,-6.76
2023-02-06T01:58:52.449Z,-6.79
2023-02-06T02:01:20.341Z,-6.77
2023-02-06T02:03:52.741Z,-6.75
2023-02-06T02:06:24.946Z,-6.74
2023-02-06T02:08:57.532Z,-6.65
2023-02-06T02:11:36.172Z,-6.68
2023-02-06T02:14:08.093Z,-6.71
2023-02-06T02:16:54.983Z,-6.69
2023-02-06T02:19:53.302Z,-6.73
2023-02-06T02:22:30.358Z,-6.81
2023-02-06T02:25:12.702Z,-6.86
2023-02-06T02:28:04.083Z,-6.90
2023-02-06T02:30:52.621Z,-6.93
2023-02-06T02:33:49.093Z,-6.90
2023-02-06T02:36:29.952Z,-6.99
2023-02-06T02:39:14.791Z,-6.97
2023-02-06T02:41:57.356Z,-6.95
2023-02-06T02:44:30.474Z,-6.94
2023-02-06T02:47:02.637Z,-6.91
2023-02-06T02:49:33.090Z,-6.91
2023-02-06T02:52:00.979Z,-6.96
2023-02-06T02:54:28.836Z,-7.06
2023-02-06T02:57:19.537Z,-7.06
2023-02-06T02:59:49.418Z,-7.04
2023-02-06T03:02:21.552Z,-7.02
2023-02-06T03:04:53.641Z,-7.11
2023-02-06T03:07:37.145Z,-7.11
2023-02-06T03:10:26.965Z,-7.07
2023-02-06T03:13:06.836Z,-7.03
2023-02-06T03:16:08.917Z,-6.95
2023-02-06T03:18:40.386Z,-6.90
2023-02-06T03:21:13.859Z,-6.83
2023-02-06T03:23:44.201Z,-6.92
2023-02-06T03:26:16.278Z,-6.93
2023-02-06T03:28:49.096Z,-6.95
2023-02-06T03:31:23.285Z,-6.93
2023-02-06T03:33:58.043Z,-6.89
2023-02-06T03:36:25.404Z,-6.89
2023-02-06T03:38:53.917Z,-6.79
2023-02-06T03:41:27.114Z,-6.84
2023-02-06T03:43:56.873Z,-6.83
2023-02-06T03:46:28.017Z,-6.65
2023-02-06T03:49:00.038Z,-6.81
2023-02-06T03:51:43.652Z,-6.80
2023-02-06T03:54:19.167Z,-6.78
2023-02-06T03:57:00.394Z,-6.79
2023-02-06T03:59:27.961Z,-6.78
2023-02-06T04:01:58.851Z,-6.75
2023-02-06T04:04:34.291Z,-6.74
2023-02-06T04:07:20.750Z,-6.82
2023-02-06T04:09:48.269Z,-6.85
2023-02-06T04:12:17.042Z,-6.82
2023-02-06T04:14:45.018Z,-6.87
2023-02-06T04:17:14.443Z,-6.91
2023-02-06T04:19:46.602Z,-6.82
2023-02-06T04:22:15.817Z,-6.76
2023-02-06T04:24:43.740Z,-6.80
2023-02-06T04:27:13.466Z,-6.83
2023-02-06T04:29:40.942Z,-6.83
2023-02-06T04:32:08.413Z,-6.83
2023-02-06T04:34:36.466Z,-6.86
2023-02-06T04:37:04.304Z,-6.89
2023-02-06T04:39:31.699Z,-6.87
2023-02-06T04:41:59.397Z,-6.88
2023-02-06T04:44:26.589Z,-6.72
2023-02-06T04:46:54.246Z,-6.84
2023-02-06T04:49:22.497Z,-6.85
2023-02-06T04:51:49.785Z,-6.87
2023-02-06T04:54:17.365Z,-6.81
2023-02-06T04:56:46.419Z,-6.77
2023-02-06T04:59:14.197Z,-6.65
2023-02-06T05:01:41.522Z,-6.59
2023-02-06T05:04:08.768Z,-6.52
2023-02-06T05:06:36.454Z,-6.45
2023-02-06T05:09:06.228Z,-6.34
2023-02-06T05:11:33.908Z,-6.15
2023-02-06T05:14:02.942Z,-6.06
2023-02-06T05:16:30.294Z,-5.97
2023-02-06T05:18:57.758Z,-5.98
2023-02-06T05:21:26.239Z,-6.04
2023-02-06T05:23:53.478Z,-6.04
2023-02-06T05:26:20.717Z,-6.05
2023-02-06T05:28:47.949Z,-6.01
2023-02-06T05:31:20.004Z,-6.07
2023-02-06T05:33:51.861Z,-5.92
2023-02-06T05:36:20.642Z,-5.99
2023-02-06T05:38:48.680Z,-6.02
2023-02-06T05:41:16.932Z,-6.11
2023-02-06T05:43:45.504Z,-6.19
2023-02-06T05:46:13.257Z,-6.35
2023-02-06T05:48:40.816Z,-6.38
2023-02-06T05:51:08.392Z,-6.32
2023-02-06T05:53:35.386Z,-6.31
2023-02-06T05:56:02.614Z,-6.31
2023-02-06T05:58:29.711Z,-6.31
2023-02-06T06:00:57.225Z,-6.26
2023-02-06T06:03:24.489Z,-6.29
2023-02-06T06:05:53.402Z,-6.28
2023-02-06T06:08:21.306Z,-6.24
2023-02-06T06:10:51.419Z,-6.17
2023-02-06T06:13:18.896Z,-6.14
2023-02-06T06:15:48.590Z,-6.06
2023-02-06T06:18:15.661Z,-6.00
2023-02-06T06:20:42.748Z,-5.89
2023-02-06T06:23:09.994Z,-5.79
2023-02-06T06:25:37.781Z,-5.81
2023-02-06T06:28:05.402Z,-5.63
2023-02-06T06:30:35.614Z,-5.53
2023-02-06T06:33:03.677Z,-5.34
2023-02-06T06:35:30.665Z,-5.22
2023-02-06T06:37:57.811Z,-5.17
2023-02-06T06:40:24.979Z,-5.10
2023-02-06T06:42:55.102Z,-5.04
2023-02-06T06:45:22.395Z,-4.95
2023-02-06T06:47:49.799Z,-4.92
2023-02-06T06:50:20.301Z,-4.86
2023-02-06T06:52:48.149Z,-4.82
2023-02-06T06:55:15.621Z,-4.80
2023-02-06T06:57:42.826Z,-4.80
2023-02-06T07:00:13.401Z,-4.76
2023-02-06T07:02:40.823Z,-4.69
2023-02-06T07:05:08.519Z,-4.71
2023-02-06T07:07:35.675Z,-4.75
2023-02-06T07:10:02.741Z,-4.80
2023-02-06T07:12:29.889Z,-4.78
2023-02-06T07:14:58.634Z,-4.83
2023-02-06T07:17:27.174Z,-4.90
2023-02-06T07:19:54.375Z,-4.82
2023-02-06T07:22:27.149Z,-4.84
2023-02-06T07:24:59.983Z,-4.92
2023-02-06T07:27:29.895Z,-4.88
2023-02-06T07:30:00.140Z,-4.88
2023-02-06T07:32:28.187Z,-4.84
2023-02-06T07:34:55.356Z,-4.75
2023-02-06T07:37:22.594Z,-4.70
2023-02-06T07:39:50.116Z,-4.67
2023-02-06T07:42:19.486Z,-4.61
2023-02-06T07:44:55.109Z,-4.55
2023-02-06T07:47:22.213Z,-4.50
2023-02-06T07:49:54.880Z,-4.44
2023-02-06T07:52:22.441Z,-4.34
2023-02-06T07:54:49.847Z,-4.26
2023-02-06T07:57:17.443Z,-4.20
2023-02-06T07:59:44.562Z,-4.13
2023-02-06T08:02:14.670Z,-4.07
2023-02-06T08:04:42.180Z,-4.00
2023-02-06T08:07:14.835Z,-3.92
2023-02-06T08:09:42.390Z,-3.94
2023-02-06T08:12:11.888Z,-3.91
2023-02-06T08:14:39.274Z,-3.91
2023-02-06T08:17:08.225Z,-3.86
2023-02-06T08:19:35.345Z,-3.83
2023-02-06T08:22:05.271Z,-3.75
2023-02-06T08:24:32.457Z,-3.75
2023-02-06T08:26:59.699Z,-3.72
2023-02-06T08:29:27.130Z,-3.78
2023-02-06T08:31:57.116Z,-3.76
2023-02-06T08:34:25.482Z,-3.71
2023-02-06T08:36:52.725Z,-3.67
2023-02-06T08:39:19.928Z,-3.66
2023-02-06T08:41:48.969Z,-3.74
2023-02-06T08:44:17.612Z,-3.73
2023-02-06T08:46:49.675Z,-3.78
2023-02-06T08:49:28.658Z,-3.74
2023-02-06T08:51:57.318Z,-3.76
2023-02-06T08:54:28.759Z,-3.65
2023-02-06T08:56:58.634Z,-3.58
2023-02-06T08:59:28.136Z,-3.57
2023-02-06T09:01:58.213Z,-3.48
2023-02-06T09:04:37.387Z,-3.54
2023-02-06T09:07:10.882Z,-3.65
2023-02-06T09:09:42.030Z,-3.64
2023-02-06T09:12:11.225Z,-3.51
2023-02-06T09:14:38.672Z,-3.44
2023-02-06T09:17:05.999Z,-3.32
2023-02-06T09:19:33.226Z,-3.24
2023-02-06T09:22:07.142Z,-3.15
2023-02-06T09:24:34.360Z,-3.14
2023-02-06T09:27:05.284Z,-3.14
2023-02-06T09:29:35.317Z,-3.04
2023-02-06T09:32:02.633Z,-2.99
2023-02-06T09:34:30.208Z,-2.95
2023-02-06T09:37:05.377Z,-2.97
2023-02-06T09:39:33.505Z,-2.97
2023-02-06T09:42:15.350Z,-3.14
2023-02-06T09:44:59.080Z,-3.28
2023-02-06T09:47:35.526Z,-3.35
2023-02-06T09:50:28.283Z,-3.40
2023-02-06T09:53:20.255Z,-3.16
2023-02-06T09:55:55.479Z,-3.14
2023-02-06T09:58:35.479Z,-3.08
2023-02-06T10:01:29.201Z,-2.96
2023-02-06T10:04:13.935Z,-3.00
2023-02-06T10:07:04.422Z,-3.03
2023-02-06T10:10:05.995Z,-3.15
2023-02-06T10:12:44.010Z,-3.21
2023-02-06T10:15:23.175Z,-3.25
2023-02-06T10:18:05.410Z,-3.06
2023-02-06T10:20:55.234Z,-2.81
2023-02-06T10:23:31.882Z,-2.82
2023-02-06T10:26:17.171Z,-2.69
2023-02-06T10:28:51.418Z,-2.74
2023-02-06T10:31:21.600Z,-2.72
2023-02-06T10:33:55.884Z,-2.82
2023-02-06T10:36:29.126Z,-2.92
2023-02-06T10:39:26.423Z,-2.88
2023-02-06T10:41:55.016Z,-2.85
2023-02-06T10:44:50.816Z,-2.73
2023-02-06T10:48:17.492Z,-2.46
2023-02-06T10:50:51.414Z,-2.18
2023-02-06T10:53:46.661Z,-1.92
2023-02-06T10:56:20.362Z,-1.83
2023-02-06T10:58:56.100Z,-1.71
2023-02-06T11:01:28.490Z,-1.58
2023-02-06T11:04:27.560Z,-1.46
2023-02-06T11:07:02.462Z,-1.34
2023-02-06T11:09:35.509Z,-1.36
2023-02-06T11:12:23.419Z,-1.39
2023-02-06T11:14:58.059Z,-1.42
2023-02-06T11:17:32.231Z,-1.36
2023-02-06T11:20:17.547Z,-1.39
2023-02-06T11:22:55.131Z,-1.67
2023-02-06T11:25:37.161Z,-1.74
2023-02-06T11:28:13.617Z,-1.96
2023-02-06T11:30:55.730Z,-1.91
2023-02-06T11:33:36.158Z,-1.91
2023-02-06T11:36:31.248Z,-1.94
2023-02-06T11:39:23.375Z,-1.94
2023-02-06T11:42:05.360Z,-1.73
2023-02-06T11:44:39.312Z,-1.64
2023-02-06T11:47:40.607Z,-1.44
2023-02-06T11:50:13.769Z,-1.45
2023-02-06T11:52:44.253Z,-1.58
2023-02-06T11:55:22.040Z,-1.56
2023-02-06T11:58:28.522Z,-1.65
2023-02-06T12:01:03.152Z,-1.48
2023-02-06T12:04:00.867Z,-1.25
2023-02-06T12:06:35.851Z,-1.12
2023-02-06T12:09:20.793Z,-0.75
2023-02-06T12:12:13.053Z,-0.56
2023-02-06T12:14:43.127Z,-0.54
2023-02-06T12:17:23.502Z,-0.22
2023-02-06T12:20:00.198Z,-0.13
2023-02-06T12:22:27.366Z,-0.08
2023-02-06T12:25:07.431Z,-0.17
2023-02-06T12:27:39.451Z,0.02
2023-02-06T12:30:37.825Z,-0.07
2023-02-06T12:33:21.422Z,-0.16
2023-02-06T12:36:12.825Z,-0.35
2023-02-06T12:38:42.901Z,-0.24
2023-02-06T12:41:16.091Z,-0.36
2023-02-06T12:43:48.753Z,-0.46
2023-02-06T12:46:21.608Z,-0.44
2023-02-06T12:49:11.368Z,-0.49
2023-02-06T12:52:04.881Z,-0.53
2023-02-06T12:54:49.964Z,-0.45
2023-02-06T12:57:26.831Z,-0.41
2023-02-06T13:00:24.142Z,-0.64
2023-02-06T13:03:13.598Z,-0.84
2023-02-06T13:05:50.868Z,-0.91
2023-02-06T13:08:41.167Z,-0.97
2023-02-06T13:11:29.630Z,-0.90
2023-02-06T13:14:17.764Z,-0.87
2023-02-06T13:17:27.290Z,-0.82
2023-02-06T13:20:01.303Z,-0.85
2023-02-06T13:22:50.828Z,-0.87
2023-02-06T13:25:30.242Z,-0.97
2023-02-06T13:28:06.171Z,-0.86
2023-02-06T13:30:34.516Z,-0.57
2023-02-06T13:33:24.108Z,-0.42
2023-02-06T13:36:11.141Z,-0.41
2023-02-06T13:38:42.428Z,-0.53
2023-02-06T13:41:15.365Z,-0.36
2023-02-06T13:43:55.645Z,-0.31
2023-02-06T13:46:31.706Z,0.03
2023-02-06T13:49:40.739Z,-0.01
2023-02-06T13:52:30.144Z,-0.36
2023-02-06T13:55:16.169Z,-0.49
2023-02-06T13:58:31.310Z,-0.65
2023-02-06T14:00:59.096Z,-0.50
2023-02-06T14:03:29.628Z,-0.49
2023-02-06T14:06:17.019Z,-0.48
2023-02-06T14:08:52.471Z,-0.38
2023-02-06T14:12:24.039Z,-0.35
2023-02-06T14:14:57.115Z,-0.45
2023-02-06T14:17:36.283Z,-0.46
2023-02-06T14:20:37.354Z,-0.44
2023-02-06T14:23:16.676Z,-0.54
2023-02-06T14:26:20.845Z,-0.79
2023-02-06T14:29:25.907Z,-0.78
2023-02-06T14:32:22.899Z,-0.63
2023-02-06T14:35:16.037Z,-0.76
2023-02-06T14:37:52.986Z,-0.76
2023-02-06T14:40:23.994Z,-0.83
2023-02-06T14:42:53.572Z,-0.98
2023-02-06T14:45:42.369Z,-1.04
2023-02-06T14:48:24.273Z,-1.24
2023-02-06T14:50:56.534Z,-1.36
2023-02-06T14:53:23.719Z,-1.63
2023-02-06T14:55:50.840Z,-1.69
2023-02-06T14:58:24.964Z,-1.75
2023-02-06T15:00:53.728Z,-1.87
2023-02-06T15:03:26.890Z,-1.87
2023-02-06T15:06:12.808Z,-1.98
2023-02-06T15:08:50.678Z,-2.11
2023-02-06T15:11:24.295Z,-2.22
2023-02-06T15:13:54.754Z,-2.30
2023-02-06T15:16:22.614Z,-2.32
2023-02-06T15:18:49.607Z,-2.41
2023-02-06T15:21:21.094Z,-2.52
2023-02-06T15:24:12.401Z,-2.50
2023-02-06T15:26:45.129Z,-2.62
2023-02-06T15:29:19.405Z,-2.64
2023-02-06T15:31:49.028Z,-2.67
2023-02-06T15:34:18.878Z,-2.71
2023-02-06T15:36:46.048Z,-2.74
2023-02-06T15:39:14.635Z,-2.83
2023-02-06T15:41:44.511Z,-2.96
2023-02-06T15:44:31.499Z,-3.02
2023-02-06T15:47:07.957Z,-3.09
2023-02-06T15:49:44.335Z,-3.12
2023-02-06T15:52:13.833Z,-3.26
2023-02-06T15:54:42.684Z,-3.34
2023-02-06T15:57:40.328Z,-3.35
2023-02-06T16:00:27.298Z,-3.31
2023-02-06T16:02:59.532Z,-3.36
2023-02-06T16:05:42.020Z,-3.51
2023-02-06T16:08:18.667Z,-3.51
2023-02-06T16:11:10.470Z,-3.51
2023-02-06T16:13:38.302Z,-3.55
2023-02-06T16:16:13.465Z,-3.59
2023-02-06T16:18:41.905Z,-3.54
2023-02-06T16:21:16.528Z,-3.61
2023-02-06T16:23:48.179Z,-3.63
2023-02-06T16:26:22.988Z,-3.64
2023-02-06T16:28:58.228Z,-3.73
2023-02-06T16:31:30.958Z,-3.79
2023-02-06T16:34:03.269Z,-3.81
2023-02-06T16:36:34.534Z,-3.91
2023-02-06T16:39:04.567Z,-3.99
2023-02-06T16:41:38.265Z,-4.02
2023-02-06T16:44:20.689Z,-3.99
2023-02-06T16:46:51.871Z,-4.05
2023-02-06T16:49:22.120Z,-4.18
2023-02-06T16:51:52.366Z,-4.22
2023-02-06T16:54:39.326Z,-4.11
2023-02-06T16:57:31.517Z,-4.23
2023-02-06T16:59:59.334Z,-4.31
2023-02-06T17:02:27.261Z,-4.18
2023-02-06T17:04:55.141Z,-4.28
2023-02-06T17:07:28.114Z,-4.25
2023-02-06T17:09:56.901Z,-4.26
2023-02-06T17:12:25.896Z,-4.28
2023-02-06T17:14:53.084Z,-4.34
2023-02-06T17:17:21.950Z,-4.33
2023-02-06T17:19:50.310Z,-4.33
2023-02-06T17:22:18.078Z,-4.23
2023-02-06T17:24:50.117Z,-4.07
2023-02-06T17:27:20.631Z,-3.96
2023-02-06T17:29:48.817Z,-3.96
2023-02-06T17:32:18.031Z,-4.06
2023-02-06T17:34:45.072Z,-4.22
2023-02-06T17:37:20.681Z,-4.39
2023-02-06T17:39:52.297Z,-4.39
2023-02-06T17:42:21.919Z,-4.47
2023-02-06T17:44:49.486Z,-4.49
2023-02-06T17:47:17.239Z,-4.60
2023-02-06T17:49:44.842Z,-4.57
2023-02-06T17:52:11.757Z,-4.60
2023-02-06T17:54:38.802Z,-4.64
2023-02-06T17:57:05.939Z,-4.60
2023-02-06T17:59:34.185Z,-4.57
2023-02-06T18:02:01.725Z,-4.57
2023-02-06T18:04:35.962Z,-4.57
2023-02-06T18:07:03.143Z,-4.60
2023-02-06T18:09:30.331Z,-4.66
2023-02-06T18:11:57.417Z,-4.65
2023-02-06T18:14:25.131Z,-4.57
2023-02-06T18:16:52.198Z,-4.56
2023-02-06T18:19:24.161Z,-4.65
2023-02-06T18:21:56.409Z,-4.81
2023-02-06T18:24:24.996Z,-4.88
2023-02-06T18:26:53.712Z,-4.95
2023-02-06T18:29:22.221Z,-4.99
2023-02-06T18:31:49.409Z,-4.94
2023-02-06T18:34:18.505Z,-4.80
2023-02-06T18:36:46.910Z,-4.83
2023-02-06T18:39:14.253Z,-4.91
2023-02-06T18:42:00.518Z,-4.84
2023-02-06T18:44:27.992Z,-4.82
2023-02-06T18:46:55.241Z,-4.85
2023-02-06T18:49:23.950Z,-4.88
2023-02-06T18:51:51.225Z,-4.94
2023-02-06T18:54:18.358Z,-5.00
2023-02-06T18:56:45.668Z,-5.04
2023-02-06T18:59:12.947Z,-4.98
2023-02-06T19:01:40.130Z,-4.90
2023-02-06T19:04:07.259Z,-4.99
2023-02-06T19:06:36.711Z,-5.16
2023-02-06T19:09:09.094Z,-5.17
2023-02-06T19:11:36.881Z,-5.19
2023-02-06T19:14:04.636Z,-5.24
2023-02-06T19:16:32.651Z,-5.31
2023-02-06T19:19:00.107Z,-5.34
2023-02-06T19:21:28.173Z,-5.41
2023-02-06T19:24:02.289Z,-5.45
2023-02-06T19:26:29.511Z,-5.46
2023-02-06T19:28:57.170Z,-5.46
2023-02-06T19:31:24.537Z,-5.46
2023-02-06T19:33:59.482Z,-5.39
2023-02-06T19:36:28.941Z,-5.32
2023-02-06T19:39:02.448Z,-5.28
2023-02-06T19:41:32.100Z,-5.22
2023-02-06T19:44:03.780Z,-5.26
2023-02-06T19:46:31.369Z,-5.40
2023-02-06T19:48:58.590Z,-5.49
2023-02-06T19:51:31.921Z,-5.62
2023-02-06T19:53:59.854Z,-5.61
2023-02-06T19:56:38.312Z,-5.67
2023-02-06T19:59:17.937Z,-5.61
2023-02-06T20:01:50.900Z,-5.56
2023-02-06T20:04:19.333Z,-5.50
2023-02-06T20:06:46.805Z,-5.57
2023-02-06T20:09:15.106Z,-5.58
2023-02-06T20:11:44.195Z,-5.66
2023-02-06T20:14:15.694Z,-5.64
2023-02-06T20:16:49.640Z,-5.79
2023-02-06T20:19:24.974Z,-5.78
2023-02-06T20:21:54.853Z,-5.91
2023-02-06T20:24:25.069Z,-5.95
2023-02-06T20:26:56.004Z,-5.89
2023-02-06T20:29:29.008Z,-5.86
2023-02-06T20:31:57.776Z,-5.72
2023-02-06T20:34:28.854Z,-5.77
2023-02-06T20:36:56.476Z,-5.82
2023-02-06T20:39:24.946Z,-5.80
2023-02-06T20:41:52.639Z,-5.74
2023-02-06T20:44:19.967Z,-5.71
2023-02-06T20:46:47.589Z,-5.69
2023-02-06T20:49:16.357Z,-5.61
2023-02-06T20:51:43.774Z,-5.55
2023-02-06T20:54:11.692Z,-5.55
2023-02-06T20:56:40.038Z,-5.43
2023-02-06T20:59:08.537Z,-5.40
2023-02-06T21:01:36.103Z,-5.47
2023-02-06T21:04:08.815Z,-5.73
2023-02-06T21:06:38.908Z,-5.87
2023-02-06T21:09:08.439Z,-5.98
2023-02-06T21:11:40.264Z,-6.06
2023-02-06T21:14:11.182Z,-6.02
2023-02-06T21:16:38.828Z,-6.06
2023-02-06T21:19:07.449Z,-6.07
2023-02-06T21:21:35.439Z,-6.05
2023-02-06T21:24:03.352Z,-6.06
2023-02-06T21:26:30.946Z,-6.05
2023-02-06T21:29:00.320Z,-6.04
2023-02-06T21:31:36.034Z,-6.17
2023-02-06T21:34:09.851Z,-6.21
2023-02-06T21:36:39.120Z,-6.31
2023-02-06T21:39:07.455Z,-6.27
2023-02-06T21:41:36.808Z,-6.28
2023-02-06T21:44:04.359Z,-6.33
2023-02-06T21:46:32.142Z,-6.32
2023-02-06T21:48:59.584Z,-6.29
2023-02-06T21:51:27.961Z,-6.22
2023-02-06T21:53:56.450Z,-6.29
2023-02-06T21:56:26.782Z,-6.29
2023-02-06T21:58:54.282Z,-6.16
2023-02-06T22:01:27.781Z,-6.27
2023-02-06T22:03:56.960Z,-6.25
2023-02-06T22:06:27.044Z,-6.22
2023-02-06T22:08:58.134Z,-6.30
2023-02-06T22:11:28.488Z,-6.43
2023-02-06T22:14:15.736Z,-6.54
2023-02-06T22:16:43.324Z,-6.62
2023-02-06T22:19:10.476Z,-6.63
2023-02-06T22:21:37.915Z,-6.61
2023-02-06T22:24:07.225Z,-6.62
2023-02-06T22:26:38.624Z,-6.60
2023-02-06T22:29:07.975Z,-6.47
2023-02-06T22:31:36.334Z,-6.41
2023-02-06T22:34:03.828Z,-6.37
2023-02-06T22:36:32.587Z,-6.36
2023-02-06T22:39:03.016Z,-6.43
2023-02-06T22:41:30.677Z,-6.43
2023-02-06T22:43:58.003Z,-6.50
2023-02-06T22:46:27.953Z,-6.59
2023-02-06T22:48:55.430Z,-6.69
2023-02-06T22:51:26.516Z,-6.68
2023-02-06T22:53:55.518Z,-6.66
2023-02-06T22:56:36.740Z,-6.68
2023-02-06T22:59:18.843Z,-6.71
2023-02-06T23:01:51.264Z,-6.80
2023-02-06T23:04:22.407Z,-6.80
2023-02-06T23:06:50.868Z,-6.76
2023-02-06T23:09:21.491Z,-6.77
2023-02-06T23:11:51.852Z,-6.81
2023-02-06T23:14:19.454Z,-6.83
2023-02-06T23:16:49.029Z,-6.87
2023-02-06T23:19:17.058Z,-6.96
2023-02-06T23:21:46.782Z,-7.05
2023-02-06T23:24:20.472Z,-7.10
2023-02-06T23:26:50.735Z,-7.12
2023-02-06T23:29:21.885Z,-7.13
2023-02-06T23:31:50.148Z,-7.15
2023-02-06T23:34:18.419Z,-7.16
2023-02-06T23:36:46.462Z,-7.19
2023-02-06T23:39:14.039Z,-7.19
2023-02-06T23:41:41.383Z,-7.22
2023-02-06T23:44:10.688Z,-7.21
2023-02-06T23:46:39.648Z,-7.14
2023-02-06T23:49:07.975Z,-7.19
2023-02-06T23:51:37.896Z,-7.28
2023-02-06T23:54:07.129Z,-7.35
2023-02-06T23:56:34.730Z,-7.41
2023-02-06T23:59:04.278Z,-7.47
